Time;durP1;ratioP1;P1;durP2;ratioP2;P2;SDS_P1;SDS_P2;PMS_P1;PMS_P2;Temp;Humidity;BMP_temperature;BMP_pressure;BME280_temperature;BME280_humidity;BME280_pressure;Samples;Min_cycle;Max_cycle;Signal;HPM_P1;HPM_P2
2023/05/08 00:01:05;;;;;;;17.30;6.60;;;;;;;2.41;85.03;101762.12;105615;1255;74886;-46
2023/05/08 00:03:33;;;;;;;12.70;5.20;;;;;;;2.37;84.98;101763.61;105730;1253;83245;-46
2023/05/08 00:06:05;;;;;;;9.70;5.40;;;;;;;2.37;85.27;101764.47;105753;1253;73395;-46
2023/05/08 00:08:33;;;;;;;9.40;5.30;;;;;;;2.38;85.22;101764.48;105733;1251;70002;-46
2023/05/08 00:11:01;;;;;;;11.50;6.30;;;;;;;2.32;85.14;101760.59;105714;1251;69971;-47
2023/05/08 00:13:29;;;;;;;15.10;6.30;;;;;;;2.31;85.28;101760.91;105713;1251;74895;-46
2023/05/08 00:15:58;;;;;;;19.20;7.40;;;;;;;2.27;85.05;101757.90;105702;1250;83525;-46
2023/05/08 00:18:26;;;;;;;15.50;6.20;;;;;;;2.21;85.25;101757.98;105708;1253;72548;-46
2023/05/08 00:20:54;;;;;;;14.70;6.10;;;;;;;2.17;84.98;101758.23;105717;1253;69990;-46
2023/05/08 00:23:22;;;;;;;15.70;5.90;;;;;;;2.13;85.34;101759.71;105707;1251;70005;-46
2023/05/08 00:25:51;;;;;;;13.20;5.80;;;;;;;2.11;85.27;101756.06;105698;1251;75043;-45
2023/05/08 00:28:19;;;;;;;11.90;6.00;;;;;;;2.08;85.13;101756.33;105741;1251;83522;-46
2023/05/08 00:30:48;;;;;;;17.40;6.50;;;;;;;2.05;85.40;101754.38;105758;1251;72783;-46
2023/05/08 00:33:16;;;;;;;14.80;6.30;;;;;;;2.02;85.27;101756.05;105823;1251;69909;-45
2023/05/08 00:35:44;;;;;;;16.60;6.20;;;;;;;1.99;85.60;101755.66;105741;1253;69924;-46
2023/05/08 00:38:13;;;;;;;15.50;6.60;;;;;;;1.99;85.58;101757.35;105746;1253;74926;-46
2023/05/08 00:40:41;;;;;;;14.10;6.90;;;;;;;1.97;85.73;101756.66;105724;1251;83859;-46
2023/05/08 00:43:10;;;;;;;14.30;6.20;;;;;;;1.98;85.94;101761.66;105792;1253;72774;-46
2023/05/08 00:45:38;;;;;;;12.10;6.60;;;;;;;1.95;85.86;101763.15;105778;1251;70657;-47
2023/05/08 00:48:06;;;;;;;12.60;6.30;;;;;;;1.92;85.80;101763.78;105777;1251;69900;-46
2023/05/08 00:50:35;;;;;;;12.80;6.40;;;;;;;1.91;86.04;101764.62;105703;1251;74546;-46
2023/05/08 00:53:03;;;;;;;13.60;6.00;;;;;;;1.89;86.17;101766.48;105871;1251;83468;-46
2023/05/08 00:55:31;;;;;;;9.40;5.60;;;;;;;1.87;86.03;101768.48;105510;1255;73928;-47
2023/05/08 00:58:00;;;;;;;10.10;5.40;;;;;;;1.85;86.13;101767.94;105737;1250;70059;-46
2023/05/08 01:00:30;;;;;;;9.30;5.40;;;;;;;1.83;86.01;101766.68;105827;1252;70026;-46
2023/05/08 01:03:00;;;;;;;7.80;4.90;;;;;;;1.79;86.13;101770.59;105737;1253;74996;-46
2023/05/08 01:05:29;;;;;;;9.50;5.00;;;;;;;1.77;86.13;101769.85;105831;1253;84246;-46
2023/05/08 01:07:57;;;;;;;8.70;5.00;;;;;;;1.75;86.09;101772.75;105636;1256;73867;-45
2023/05/08 01:10:34;;;;;;;8.00;4.80;;;;;;;1.73;85.90;101775.11;105682;1253;69902;-46
2023/05/08 01:13:10;;;;;;;8.00;3.80;;;;;;;1.70;85.86;101774.02;105739;1251;69989;-45
2023/05/08 01:15:48;;;;;;;8.60;4.10;;;;;;;1.66;85.80;101773.06;105811;1254;73975;-46
2023/05/08 01:18:33;;;;;;;7.70;4.40;;;;;;;1.63;85.83;101777.48;105720;1253;82550;-46
2023/05/08 01:21:12;;;;;;;5.90;3.90;;;;;;;1.59;85.86;101782.55;105588;1256;72237;-46
2023/05/08 01:24:02;;;;;;;8.30;4.50;;;;;;;1.56;85.83;101785.77;105722;1250;69979;-46
2023/05/08 01:26:54;;;;;;;6.50;4.40;;;;;;;1.54;85.96;101785.55;105735;1253;70013;-45
2023/05/08 01:29:41;;;;;;;5.80;4.40;;;;;;;1.53;86.10;101783.30;105833;1253;75192;-46
2023/05/08 01:32:14;;;;;;;5.20;3.60;;;;;;;1.50;85.95;101779.80;105714;1253;83507;-46
2023/05/08 01:34:49;;;;;;;5.70;3.90;;;;;;;1.48;86.20;101781.27;105610;1253;72751;-45
2023/05/08 01:37:24;;;;;;;6.40;4.00;;;;;;;1.47;86.17;101780.73;105717;1251;69947;-46
2023/05/08 01:39:58;;;;;;;6.60;4.10;;;;;;;1.47;86.46;101783.67;105947;1251;69996;-46
2023/05/08 01:42:53;;;;;;;7.50;4.70;;;;;;;1.50;86.62;101781.49;105719;1251;74978;-45
2023/05/08 01:45:25;;;;;;;7.20;4.60;;;;;;;1.48;86.48;101784.38;105615;1250;83855;-46
2023/05/08 01:48:02;;;;;;;6.10;4.00;;;;;;;1.48;86.63;101781.98;105613;1254;72642;-45
2023/05/08 01:50:34;;;;;;;6.80;4.10;;;;;;;1.47;86.73;101784.35;105849;1250;69983;-46
2023/05/08 01:53:30;;;;;;;6.80;4.60;;;;;;;1.47;86.50;101784.51;105647;1249;69886;-46
2023/05/08 01:56:04;;;;;;;7.80;4.50;;;;;;;1.44;86.82;101785.85;105905;1253;75174;-47
2023/05/08 01:58:33;;;;;;;5.90;4.30;;;;;;;1.43;86.65;101785.98;105641;1256;82441;-47
2023/05/08 02:01:02;;;;;;;8.80;4.70;;;;;;;1.42;86.70;101787.19;105547;1253;72643;-46
2023/05/08 02:03:32;;;;;;;9.40;4.90;;;;;;;1.42;86.72;101787.19;105619;1253;70055;-46
2023/05/08 02:06:01;;;;;;;11.90;5.00;;;;;;;1.41;86.60;101787.67;105669;1251;69990;-47
2023/05/08 02:08:30;;;;;;;6.80;4.40;;;;;;;1.41;86.90;101790.59;105781;1256;73871;-46
2023/05/08 02:10:59;;;;;;;7.20;4.10;;;;;;;1.40;86.80;101792.46;105723;1251;83545;-46
2023/05/08 02:13:28;;;;;;;7.20;4.70;;;;;;;1.43;87.21;101793.21;105749;1253;73717;-46
2023/05/08 02:15:58;;;;;;;7.70;3.70;;;;;;;1.42;86.85;101791.66;105687;1253;69986;-47
2023/05/08 02:18:27;;;;;;;5.60;4.20;;;;;;;1.38;86.67;101794.16;105826;1251;70111;-45
2023/05/08 02:20:55;;;;;;;5.70;4.20;;;;;;;1.37;86.72;101798.59;105752;1253;74900;-46
2023/05/08 02:23:25;;;;;;;6.50;4.40;;;;;;;1.35;86.89;101798.20;105633;1256;83218;-46
2023/05/08 02:25:54;;;;;;;7.20;4.20;;;;;;;1.36;86.96;101798.91;105625;1256;73875;-45
2023/05/08 02:28:23;;;;;;;5.60;3.90;;;;;;;1.36;87.04;101807.67;105680;1256;69980;-46
2023/05/08 02:30:52;;;;;;;8.40;4.20;;;;;;;1.35;87.05;101808.73;105740;1251;69998;-45
2023/05/08 02:33:20;;;;;;;5.60;4.20;;;;;;;1.34;87.10;101814.38;105771;1253;74824;-46
2023/05/08 02:35:50;;;;;;;5.90;3.90;;;;;;;1.34;87.00;101816.95;105900;1253;83708;-45
2023/05/08 02:38:20;;;;;;;6.20;3.90;;;;;;;1.32;87.00;101820.34;105747;1255;72600;-44
2023/05/08 02:40:57;;;;;;;5.50;4.20;;;;;;;1.29;86.83;101819.61;105750;1251;69986;-45
2023/05/08 02:43:25;;;;;;;6.00;4.00;;;;;;;1.28;86.90;101818.19;105668;1251;69916;-45
2023/05/08 02:46:11;;;;;;;7.00;4.10;;;;;;;1.24;86.57;101817.08;105779;1251;74899;-45
2023/05/08 02:48:47;;;;;;;8.70;4.70;;;;;;;1.21;86.62;101823.37;105863;1251;82434;-44
2023/05/08 02:51:27;;;;;;;7.00;4.00;;;;;;;1.19;86.77;101821.25;105770;1251;72684;-45
2023/05/08 02:54:08;;;;;;;7.30;4.50;;;;;;;1.17;86.91;101820.52;105604;1256;70071;-45
2023/05/08 02:56:57;;;;;;;7.50;4.10;;;;;;;1.16;86.81;101824.78;105690;1253;69979;-45
2023/05/08 02:59:33;;;;;;;6.50;4.20;;;;;;;1.16;87.04;101827.89;105728;1251;73869;-45
2023/05/08 03:02:02;;;;;;;8.70;4.30;;;;;;;1.14;87.06;101830.44;105705;1253;83035;-45
2023/05/08 03:04:36;;;;;;;6.20;4.40;;;;;;;1.13;87.10;101829.19;105743;1251;73366;-44
2023/05/08 03:07:05;;;;;;;7.20;4.10;;;;;;;1.12;87.19;101831.06;105794;1253;70370;-46
2023/05/08 03:09:45;;;;;;;7.30;4.30;;;;;;;1.13;87.23;101832.45;105802;1251;69864;-45
2023/05/08 03:12:17;;;;;;;5.80;4.30;;;;;;;1.12;87.23;101826.77;105761;1253;75051;-44
2023/05/08 03:15:14;;;;;;;6.20;4.30;;;;;;;1.11;87.51;101831.91;105650;1256;83383;-45
2023/05/08 03:17:44;;;;;;;6.70;4.50;;;;;;;1.14;87.62;101835.92;105728;1251;73478;-45
2023/05/08 03:20:16;;;;;;;7.80;4.40;;;;;;;1.11;87.63;101832.77;105531;1251;70606;-46
2023/05/08 03:22:45;;;;;;;7.80;4.80;;;;;;;1.13;87.71;101836.77;105527;1256;70056;-44
2023/05/08 03:25:16;;;;;;;6.50;4.30;;;;;;;1.15;88.01;101837.86;105756;1251;74707;-44
2023/05/08 03:27:45;;;;;;;6.30;4.40;;;;;;;1.17;87.99;101841.70;105645;1252;83567;-44
2023/05/08 03:30:14;;;;;;;7.20;5.10;;;;;;;1.21;88.15;101840.40;105751;1253;73702;-45
2023/05/08 03:32:46;;;;;;;7.20;4.70;;;;;;;1.23;88.14;101840.46;105524;1258;69973;-45
2023/05/08 03:35:15;;;;;;;6.40;4.50;;;;;;;1.24;88.08;101840.66;105640;1256;71566;-45
2023/05/08 03:37:43;;;;;;;7.10;4.50;;;;;;;1.25;88.28;101841.55;105643;1257;74814;-44
2023/05/08 03:40:12;;;;;;;5.40;4.00;;;;;;;1.28;88.12;101841.60;105613;1256;84706;-45
2023/05/08 03:42:42;;;;;;;6.40;4.80;;;;;;;1.29;88.06;101841.48;105700;1253;73738;-45
2023/05/08 03:45:13;;;;;;;7.80;4.90;;;;;;;1.30;88.14;101844.77;105661;1251;70453;-45
2023/05/08 03:47:42;;;;;;;7.50;4.70;;;;;;;1.32;88.41;101847.04;105637;1257;69925;-45
2023/05/08 03:50:12;;;;;;;6.10;4.50;;;;;;;1.34;88.25;101843.31;105667;1250;73961;-45
2023/05/08 03:52:41;;;;;;;6.10;4.50;;;;;;;1.36;88.33;101845.60;105830;1253;84598;-46
2023/05/08 03:55:09;;;;;;;8.90;5.90;;;;;;;1.37;88.21;101842.34;105604;1256;72913;-44
2023/05/08 03:58:04;;;;;;;7.90;5.50;;;;;;;1.37;88.32;101843.56;105715;1251;69892;-44
2023/05/08 04:00:59;;;;;;;6.90;4.90;;;;;;;1.38;88.54;101843.05;105390;1258;70001;-45
2023/05/08 04:03:43;;;;;;;6.30;5.20;;;;;;;1.41;88.55;101847.77;105402;1262;75052;-44
2023/05/08 04:06:53;;;;;;;8.70;4.90;;;;;;;1.43;88.35;101846.11;105738;1253;83389;-45
2023/05/08 04:09:54;;;;;;;7.60;5.20;;;;;;;1.46;88.79;101848.09;105190;1254;72979;-45
2023/05/08 04:13:06;;;;;;;8.20;4.60;;;;;;;1.51;88.93;101843.38;105613;1251;70052;-45
2023/05/08 04:16:02;;;;;;;6.80;4.70;;;;;;;1.60;89.16;101848.39;105671;1253;70001;-44
2023/05/08 04:18:34;;;;;;;8.00;5.30;;;;;;;1.69;89.69;101851.19;105640;1253;75041;-45
2023/05/08 04:21:08;;;;;;;8.90;5.10;;;;;;;1.81;90.19;101855.42;105638;1253;83464;-44
2023/05/08 04:23:39;;;;;;;8.70;6.20;;;;;;;1.97;90.63;101858.88;105607;1251;72883;-45
2023/05/08 04:26:09;;;;;;;9.70;6.60;;;;;;;2.14;91.52;101860.95;105659;1251;70017;-44
2023/05/08 04:28:38;;;;;;;9.20;6.60;;;;;;;2.33;91.74;101868.08;105539;1250;69920;-44
2023/05/08 04:31:07;;;;;;;8.40;6.00;;;;;;;2.49;92.20;101866.32;105636;1256;74753;-44
2023/05/08 04:33:36;;;;;;;8.30;6.20;;;;;;;2.66;91.91;101870.10;105648;1255;83496;-44
2023/05/08 04:36:05;;;;;;;9.60;6.80;;;;;;;2.80;92.08;101869.68;105675;1255;73670;-44
2023/05/08 04:38:36;;;;;;;8.80;6.90;;;;;;;2.96;92.11;101872.70;105611;1256;69968;-44
2023/05/08 04:41:05;;;;;;;8.00;6.30;;;;;;;3.10;92.54;101872.61;105636;1251;69902;-46
2023/05/08 04:43:35;;;;;;;11.80;6.30;;;;;;;3.23;92.53;101876.81;105709;1254;74958;-45
2023/05/08 04:46:04;;;;;;;8.90;6.10;;;;;;;3.38;92.33;101881.55;105847;1251;81767;-45
2023/05/08 04:48:33;;;;;;;7.80;5.80;;;;;;;3.49;92.06;101881.73;105622;1256;75208;-46
2023/05/08 04:51:02;;;;;;;10.00;6.80;;;;;;;3.62;92.07;101884.85;105655;1257;69970;-44
2023/05/08 04:53:30;;;;;;;7.70;6.00;;;;;;;3.74;91.79;101884.36;105692;1254;70059;-45
2023/05/08 04:55:59;;;;;;;8.50;5.70;;;;;;;3.88;91.95;101882.13;105710;1255;75125;-47
2023/05/08 04:58:27;;;;;;;8.90;6.00;;;;;;;3.99;91.85;101887.83;105713;1261;83354;-44
2023/05/08 05:00:56;;;;;;;10.20;5.90;;;;;;;4.09;91.66;101890.73;105902;1255;73148;-45
2023/05/08 05:03:24;;;;;;;10.20;5.70;;;;;;;4.18;91.70;101893.96;105706;1253;69996;-44
2023/05/08 05:05:57;;;;;;;8.00;5.60;;;;;;;4.30;91.62;101896.36;105757;1255;69867;-46
2023/05/08 05:08:27;;;;;;;8.30;5.80;;;;;;;4.40;91.65;101900.83;105730;1254;73565;-46
2023/05/08 05:10:55;;;;;;;7.30;5.60;;;;;;;4.51;91.39;101895.41;105872;1251;82913;-44
2023/05/08 05:13:24;;;;;;;9.60;5.70;;;;;;;4.63;91.58;101896.59;105843;1253;72721;-45
2023/05/08 05:15:53;;;;;;;7.50;5.20;;;;;;;4.74;91.50;101898.62;105790;1253;69973;-45
2023/05/08 05:18:22;;;;;;;7.00;5.40;;;;;;;4.84;91.39;101897.00;105887;1251;69879;-44
2023/05/08 05:20:51;;;;;;;7.50;4.90;;;;;;;4.96;91.26;101902.66;105959;1253;73842;-49
2023/05/08 05:23:20;;;;;;;7.60;4.70;;;;;;;5.05;90.96;101905.36;105904;1253;83486;-45
2023/05/08 05:25:48;;;;;;;6.50;4.70;;;;;;;5.12;90.54;101905.08;105928;1257;72655;-45
2023/05/08 05:28:16;;;;;;;6.00;4.50;;;;;;;5.22;90.71;101907.59;105624;1255;69893;-45
2023/05/08 05:30:48;;;;;;;5.50;4.20;;;;;;;5.31;90.33;101907.67;105777;1258;70047;-45
2023/05/08 05:33:17;;;;;;;5.70;4.00;;;;;;;5.37;90.06;101899.75;105693;1257;74722;-45
2023/05/08 05:35:45;;;;;;;5.10;4.40;;;;;;;5.45;89.85;101905.70;105833;1260;223484;-45
2023/05/08 05:38:14;;;;;;;5.60;4.00;;;;;;;5.53;89.96;101907.51;105875;1253;71650;-44
2023/05/08 05:40:42;;;;;;;6.30;4.10;;;;;;;5.61;89.82;101905.84;105713;1251;70441;-45
2023/05/08 05:43:11;;;;;;;8.50;4.10;;;;;;;5.68;89.32;101904.50;105696;1257;69898;-45
2023/05/08 05:45:39;;;;;;;5.10;3.90;;;;;;;5.75;89.42;101905.23;105744;1254;73268;-45
2023/05/08 05:48:07;;;;;;;4.80;3.60;;;;;;;5.83;89.09;101906.69;105895;1254;83241;-47
2023/05/08 05:50:36;;;;;;;5.50;3.40;;;;;;;5.92;89.02;101905.19;105694;1257;73955;-45
2023/05/08 05:53:05;;;;;;;5.60;3.70;;;;;;;5.98;88.63;101906.81;106021;1258;70834;-45
2023/05/08 05:55:34;;;;;;;6.40;4.10;;;;;;;6.05;88.85;101905.81;105929;1254;70650;-45
2023/05/08 05:58:02;;;;;;;5.10;4.00;;;;;;;6.14;89.02;101909.00;106008;1253;74814;-46
2023/05/08 06:00:31;;;;;;;5.80;4.10;;;;;;;6.27;88.91;101909.06;105718;1256;84662;-45
2023/05/08 06:03:01;;;;;;;4.40;3.50;;;;;;;6.36;88.81;101913.09;105858;1255;73432;-45
2023/05/08 06:05:30;;;;;;;4.70;3.70;;;;;;;6.43;88.50;101913.83;105656;1253;69887;-45
2023/05/08 06:07:58;;;;;;;5.90;4.00;;;;;;;6.50;88.23;101914.55;106095;1255;70012;-46
2023/05/08 06:10:27;;;;;;;8.20;4.00;;;;;;;6.58;88.32;101911.09;105813;1255;74498;-50
2023/05/08 06:12:55;;;;;;;5.80;3.90;;;;;;;6.69;88.22;101916.69;105921;1253;81919;-45
2023/05/08 06:15:24;;;;;;;4.60;3.80;;;;;;;6.77;87.79;101916.02;105732;1257;73869;-46
2023/05/08 06:17:53;;;;;;;6.60;4.30;;;;;;;6.84;87.22;101920.20;105701;1253;70457;-46
2023/05/08 06:20:22;;;;;;;5.20;3.90;;;;;;;6.88;86.75;101920.40;105738;1254;70035;-46
2023/05/08 06:22:53;;;;;;;4.60;3.50;;;;;;;6.95;87.13;101924.58;105707;1251;75787;-45
2023/05/08 06:25:21;;;;;;;5.10;3.80;;;;;;;7.05;86.94;101920.61;105865;1254;83402;-46
2023/05/08 06:27:49;;;;;;;5.70;3.90;;;;;;;7.16;87.38;101919.75;105731;1256;72744;-48
2023/05/08 06:30:18;;;;;;;6.60;4.20;;;;;;;7.24;86.46;101918.90;105981;1254;70009;-47
2023/05/08 06:32:46;;;;;;;8.00;3.80;;;;;;;7.33;86.66;101922.21;105729;1253;70328;-46
2023/05/08 06:35:18;;;;;;;6.20;4.00;;;;;;;7.43;86.41;101925.52;105737;1251;73873;-45
2023/05/08 06:37:46;;;;;;;4.20;3.40;;;;;;;7.50;85.82;101925.52;106099;1253;82382;-45
2023/05/08 06:40:14;;;;;;;4.60;3.40;;;;;;;7.58;85.91;101924.31;105763;1254;74069;-45
2023/05/08 06:42:42;;;;;;;5.00;2.80;;;;;;;7.67;85.76;101923.77;105722;1254;69977;-45
2023/05/08 06:45:11;;;;;;;5.70;3.40;;;;;;;7.74;84.75;101928.13;105692;1253;69938;-46
2023/05/08 06:47:40;;;;;;;4.50;3.20;;;;;;;7.76;83.74;101924.48;105726;1251;74787;-45
2023/05/08 06:50:09;;;;;;;4.50;3.00;;;;;;;7.80;83.49;101928.64;105759;1254;82543;-45
2023/05/08 06:52:37;;;;;;;5.00;3.30;;;;;;;7.85;83.45;101931.94;105977;1252;73388;-44
2023/05/08 06:55:05;;;;;;;8.10;3.50;;;;;;;7.91;83.43;101928.10;105906;1254;70530;-47
2023/05/08 06:57:34;;;;;;;6.70;3.50;;;;;;;7.98;83.40;101927.73;107023;1251;69909;-45
2023/05/08 07:00:03;;;;;;;4.90;3.50;;;;;;;8.04;82.96;101930.00;105688;1253;74925;-46
2023/05/08 07:02:31;;;;;;;5.80;3.50;;;;;;;8.12;82.36;101926.15;105872;1251;83414;-46
2023/05/08 07:04:59;;;;;;;3.40;2.90;;;;;;;8.17;82.53;101932.58;105746;1254;72609;-46
2023/05/08 07:07:28;;;;;;;4.40;2.80;;;;;;;8.23;81.92;101938.14;105710;1254;69973;-46
2023/05/08 07:09:56;;;;;;;6.30;3.70;;;;;;;8.30;81.66;101942.81;105718;1251;70258;-46
2023/05/08 07:12:24;;;;;;;4.10;3.10;;;;;;;8.39;81.80;101941.93;105702;1254;74858;-46
2023/05/08 07:14:52;;;;;;;5.20;3.60;;;;;;;8.49;81.81;101938.95;105653;1253;83454;-45
2023/05/08 07:17:22;;;;;;;7.20;3.80;;;;;;;8.62;81.72;101944.30;105719;1254;73421;-44
2023/05/08 07:19:51;;;;;;;4.00;3.30;;;;;;;8.71;81.09;101937.64;105621;1254;69909;-45
2023/05/08 07:22:19;;;;;;;3.60;2.90;;;;;;;8.79;81.04;101939.16;105756;1251;69971;-46
2023/05/08 07:24:48;;;;;;;3.50;2.80;;;;;;;8.92;80.95;101941.20;105766;1254;74956;-46
2023/05/08 07:27:16;;;;;;;4.40;2.80;;;;;;;9.01;79.73;101944.64;105723;1254;83355;-46
2023/05/08 07:29:44;;;;;;;4.60;2.90;;;;;;;9.03;79.48;101936.77;105743;1251;72763;-46
2023/05/08 07:32:14;;;;;;;5.80;2.80;;;;;;;9.14;79.63;101937.39;105739;1253;70018;-46
2023/05/08 07:34:42;;;;;;;3.20;2.90;;;;;;;9.27;79.33;101936.62;105733;1253;69985;-46
2023/05/08 07:37:11;;;;;;;5.60;3.20;;;;;;;9.36;78.84;101938.29;105980;1254;73944;-45
2023/05/08 07:39:39;;;;;;;4.90;3.00;;;;;;;9.43;78.43;101936.14;105758;1254;83153;-45
2023/05/08 07:42:08;;;;;;;5.30;3.70;;;;;;;9.50;77.77;101936.80;105735;1253;72775;-45
2023/05/08 07:44:36;;;;;;;4.10;3.20;;;;;;;9.57;78.00;101936.04;105737;1251;69956;-46
2023/05/08 07:47:21;;;;;;;5.50;3.00;;;;;;;9.72;77.85;101938.34;105693;1251;69873;-46
2023/05/08 07:49:49;;;;;;;4.80;3.30;;;;;;;9.83;77.42;101934.23;105936;1251;74321;-46
2023/05/08 07:52:17;;;;;;;4.60;3.30;;;;;;;9.94;77.22;101931.67;105779;1251;83644;-46
2023/05/08 07:54:46;;;;;;;5.80;3.90;;;;;;;10.05;76.61;101931.73;105729;1251;73898;-46
2023/05/08 07:57:14;;;;;;;6.60;3.60;;;;;;;10.12;76.06;101934.12;105734;1254;69876;-45
2023/05/08 07:59:42;;;;;;;5.60;3.70;;;;;;;10.19;75.63;101935.78;105686;1251;70002;-46
2023/05/08 08:02:10;;;;;;;4.40;3.50;;;;;;;10.25;75.60;101935.55;105742;1253;74228;-47
2023/05/08 08:04:39;;;;;;;4.60;3.60;;;;;;;10.35;74.95;101938.44;105766;1253;84064;-46
2023/05/08 08:07:07;;;;;;;5.50;4.00;;;;;;;10.38;74.44;101940.84;105743;1251;72740;-45
2023/05/08 08:09:36;;;;;;;6.20;4.10;;;;;;;10.45;74.65;101941.30;105768;1254;69909;-45
2023/05/08 08:12:04;;;;;;;4.40;3.80;;;;;;;10.57;74.67;101934.85;105692;1250;69881;-45
2023/05/08 08:14:33;;;;;;;6.60;3.80;;;;;;;10.70;74.36;101926.12;105820;1251;73893;-45
2023/05/08 08:17:01;;;;;;;5.60;4.20;;;;;;;10.78;73.71;101932.83;105717;1251;83486;-46
2023/05/08 08:19:29;;;;;;;5.40;4.30;;;;;;;10.84;73.44;101934.16;105692;1252;73740;-46
2023/05/08 08:21:57;;;;;;;5.50;3.80;;;;;;;10.92;73.22;101937.18;105661;1254;69934;-46
2023/05/08 08:24:28;;;;;;;7.00;4.10;;;;;;;11.01;72.48;101934.28;105705;1251;70002;-45
2023/05/08 08:26:56;;;;;;;;;;;;;;;11.06;72.47;101932.45;105761;1251;73988;-45
2023/05/08 08:29:24;;;;;;;5.70;4.10;;;;;;;11.14;72.20;101927.60;105733;1253;83343;-46
2023/05/08 08:31:52;;;;;;;7.70;4.30;;;;;;;11.24;72.25;101926.57;105775;1254;74069;-46
2023/05/08 08:34:21;;;;;;;5.10;4.40;;;;;;;11.34;71.76;101931.13;105712;1250;70028;-45
2023/05/08 08:36:49;;;;;;;5.10;4.20;;;;;;;11.40;71.20;101931.05;105768;1254;69976;-45
2023/05/08 08:39:17;;;;;;;7.20;4.20;;;;;;;11.44;70.85;101931.88;105780;1251;74607;-46
2023/05/08 08:41:46;;;;;;;6.20;4.20;;;;;;;11.48;70.18;101931.27;105696;1251;83608;-45
2023/05/08 08:44:14;;;;;;;6.10;4.60;;;;;;;11.55;70.18;101931.33;105832;1252;73839;-46
2023/05/08 08:46:50;;;;;;;5.20;4.60;;;;;;;11.66;70.15;101929.40;105683;1250;69915;-46
2023/05/08 08:49:24;;;;;;;4.20;3.40;;;;;;;11.73;69.14;101930.15;105783;1254;69973;-47
2023/05/08 08:51:57;;;;;;;4.40;3.80;;;;;;;11.79;69.20;101930.39;105833;1254;73529;-46
2023/05/08 08:54:29;;;;;;;6.00;3.70;;;;;;;11.85;68.70;101926.27;105721;1254;83454;-46
2023/05/08 08:57:00;;;;;;;5.90;3.50;;;;;;;11.92;67.36;101920.75;105613;1256;72565;-46
2023/05/08 08:59:28;;;;;;;5.60;3.80;;;;;;;11.98;67.58;101921.49;105758;1254;70086;-46
2023/05/08 09:02:00;;;;;;;5.60;3.30;;;;;;;12.09;67.27;101924.62;105762;1251;69967;-45
2023/05/08 09:04:30;;;;;;;4.80;3.80;;;;;;;12.21;66.92;101917.55;105694;1254;73977;-45
2023/05/08 09:06:58;;;;;;;4.90;3.20;;;;;;;12.32;66.11;101915.77;105704;1254;83615;-45
2023/05/08 09:09:27;;;;;;;4.40;2.90;;;;;;;12.44;65.63;101914.81;105635;1256;73952;-46
2023/05/08 09:11:55;;;;;;;6.00;3.60;;;;;;;12.57;64.68;101914.72;105680;1257;70047;-46
2023/05/08 09:14:25;;;;;;;4.50;2.60;;;;;;;12.65;63.67;101911.77;105709;1251;69979;-46
2023/05/08 09:16:53;;;;;;;3.90;3.00;;;;;;;12.71;63.20;101909.87;105709;1254;74981;-46
2023/05/08 09:19:22;;;;;;;4.90;2.80;;;;;;;12.83;62.38;101911.20;105800;1257;83353;-46
2023/05/08 09:21:58;;;;;;;4.70;3.10;;;;;;;12.90;61.83;101907.85;105657;1249;72698;-46
2023/05/08 09:24:52;;;;;;;3.10;2.20;;;;;;;12.95;60.85;101905.99;105616;1251;69813;-45
2023/05/08 09:27:24;;;;;;;5.40;2.60;;;;;;;13.05;61.11;101898.56;105785;1253;69989;-46
2023/05/08 09:30:05;;;;;;;3.40;2.50;;;;;;;13.31;61.45;101897.63;105731;1251;74048;-45
2023/05/08 09:32:35;;;;;;;6.90;2.60;;;;;;;13.47;60.43;101903.75;105768;1251;82574;-46
2023/05/08 09:35:05;;;;;;;5.40;2.70;;;;;;;13.59;59.67;101894.64;105704;1253;72728;-44
2023/05/08 09:37:35;;;;;;;5.20;2.40;;;;;;;13.69;59.11;101891.75;105774;1250;69854;-45
2023/05/08 09:40:14;;;;;;;4.90;2.90;;;;;;;13.77;58.27;101879.42;105764;1250;69992;-48
2023/05/08 09:42:42;;;;;;;4.20;2.50;;;;;;;13.84;57.49;101891.02;105704;1250;75316;-47
2023/05/08 09:45:11;;;;;;;4.10;2.60;;;;;;;13.95;57.46;101887.36;105832;1254;82886;-46
2023/05/08 09:47:47;;;;;;;2.80;2.00;;;;;;;14.11;57.37;101892.92;105869;1250;73961;-46
2023/05/08 09:50:15;;;;;;;6.10;2.40;;;;;;;14.32;57.08;101883.88;105736;1253;69955;-46
2023/05/08 09:52:48;;;;;;;5.90;2.20;;;;;;;14.47;56.86;101887.13;105938;1251;69899;-46
2023/05/08 09:55:16;;;;;;;4.70;2.30;;;;;;;14.65;56.19;101885.03;105781;1251;73882;-46
2023/05/08 09:57:58;;;;;;;4.60;2.60;;;;;;;14.77;55.65;101881.85;105795;1251;83245;-46
2023/05/08 10:00:28;;;;;;;6.10;2.50;;;;;;;14.84;54.73;101884.11;105831;1253;73918;-47
2023/05/08 10:02:57;;;;;;;5.80;2.60;;;;;;;14.92;54.65;101883.14;105728;1254;69938;-45
2023/05/08 10:05:31;;;;;;;4.70;2.00;;;;;;;15.09;54.15;101874.48;105907;1253;69874;-46
2023/05/08 10:08:20;;;;;;;4.10;2.50;;;;;;;15.32;53.74;101885.91;105774;1251;73830;-46
2023/05/08 10:10:49;;;;;;;6.50;2.60;;;;;;;15.50;52.55;101883.71;105804;1251;82602;-46
2023/05/08 10:13:17;;;;;;;6.10;2.50;;;;;;;15.65;52.82;101879.15;105818;1253;73197;-47
2023/05/08 10:15:51;;;;;;;3.70;2.90;;;;;;;15.82;52.34;101876.81;105705;1250;69877;-46
2023/05/08 10:18:21;;;;;;;5.80;2.40;;;;;;;15.97;51.91;101877.17;105796;1251;69818;-46
2023/05/08 10:20:50;;;;;;;4.70;3.10;;;;;;;16.15;52.21;101879.00;105825;1253;75042;-46
2023/05/08 10:23:18;;;;;;;3.40;2.90;;;;;;;16.42;52.22;101874.83;105854;1252;82815;-44
2023/05/08 10:25:51;;;;;;;7.10;2.60;;;;;;;16.59;51.47;101875.59;105582;1256;73730;-44
2023/05/08 10:28:36;;;;;;;4.30;2.90;;;;;;;16.76;50.98;101874.40;105669;1251;69976;-46
2023/05/08 10:31:06;;;;;;;6.80;2.40;;;;;;;16.88;50.37;101866.67;105898;1253;69872;-44
2023/05/08 10:33:36;;;;;;;8.20;2.60;;;;;;;17.04;50.14;101870.81;105737;1251;73783;-44
2023/05/08 10:36:06;;;;;;;3.30;2.70;;;;;;;17.20;49.62;101869.27;105784;1253;82488;-44
2023/05/08 10:38:36;;;;;;;8.00;3.30;;;;;;;17.40;49.45;101870.92;105746;1251;73772;-45
2023/05/08 10:41:04;;;;;;;4.00;2.70;;;;;;;17.47;48.43;101862.65;105769;1251;69876;-46
2023/05/08 10:43:33;;;;;;;6.90;2.70;;;;;;;17.50;48.07;101859.70;105799;1251;69977;-46
2023/05/08 10:46:27;;;;;;;5.80;2.70;;;;;;;17.51;47.46;101860.00;105732;1252;74608;-44
2023/05/08 10:48:57;;;;;;;3.90;2.60;;;;;;;17.74;47.38;101861.52;105746;1253;84184;-45
2023/05/08 10:51:40;;;;;;;7.00;2.70;;;;;;;17.79;46.58;101862.38;105884;1250;73710;-45
2023/05/08 10:54:35;;;;;;;4.90;2.30;;;;;;;17.85;46.16;101856.30;105743;1253;69906;-44
2023/05/08 10:57:12;;;;;;;5.70;2.80;;;;;;;17.98;46.54;101856.95;105742;1253;69927;-45
2023/05/08 10:59:45;;;;;;;8.00;3.00;;;;;;;18.07;46.02;101860.23;105794;1251;74820;-45
2023/05/08 11:02:16;;;;;;;6.90;2.70;;;;;;;18.14;45.40;101847.36;105935;1251;83331;-46
2023/05/08 11:04:46;;;;;;;3.70;2.50;;;;;;;18.29;45.68;101844.55;105726;1253;72549;-44
2023/05/08 11:07:14;;;;;;;3.20;2.50;;;;;;;18.40;44.86;101843.50;105736;1250;70264;-45
2023/05/08 11:09:42;;;;;;;4.70;2.80;;;;;;;18.43;44.83;101846.21;105687;1251;69970;-45
2023/05/08 11:12:19;;;;;;;6.20;2.80;;;;;;;18.49;44.53;101846.80;105609;1251;74869;-46
2023/05/08 11:14:59;;;;;;;3.90;2.60;;;;;;;18.67;44.14;101833.58;105684;1251;83379;-44
2023/05/08 11:17:27;;;;;;;5.00;2.80;;;;;;;18.73;43.98;101834.88;105773;1251;73625;-46
2023/05/08 11:19:58;;;;;;;4.20;2.70;;;;;;;18.89;43.96;101833.41;105685;1251;69996;-45
2023/05/08 11:22:29;;;;;;;5.00;2.70;;;;;;;18.89;43.54;101829.86;105660;1253;69966;-45
2023/05/08 11:25:08;;;;;;;4.50;3.00;;;;;;;18.97;43.71;101828.24;105785;1251;74757;-45
2023/05/08 11:27:45;;;;;;;7.30;2.60;;;;;;;19.04;43.43;101828.42;105780;1253;83361;-46
2023/05/08 11:30:27;;;;;;;5.00;2.70;;;;;;;19.01;42.48;101826.25;105928;1251;73703;-45
2023/05/08 11:32:56;;;;;;;9.30;3.10;;;;;;;19.06;42.52;101824.09;105722;1251;69961;-45
2023/05/08 11:35:56;;;;;;;5.30;2.70;;;;;;;19.14;42.60;101821.36;105752;1254;69956;-45
2023/05/08 11:38:34;;;;;;;5.90;2.40;;;;;;;19.27;42.08;101816.98;105771;1251;73922;-45
2023/05/08 11:41:08;;;;;;;5.00;2.90;;;;;;;19.33;41.64;101817.52;105803;1251;83788;-45
2023/05/08 11:44:01;;;;;;;5.10;2.60;;;;;;;19.39;41.44;101812.46;105768;1253;73886;-46